sensor_id;sensor_type;location;lat;lon;timestamp;P1;durP1;ratioP1;P2;durP2;ratioP2
65879;SDS011;52661;51.364;6.054;2023-10-13T00:00:28;11.30;;;4.70;;
65879;SDS011;52661;51.364;6.054;2023-10-13T00:03:01;7.65;;;4.35;;
65879;SDS011;52661;51.364;6.054;2023-10-13T00:05:27;15.07;;;5.55;;
65879;SDS011;52661;51.364;6.054;2023-10-13T00:07:52;10.82;;;5.22;;
65879;SDS011;52661;51.364;6.054;2023-10-13T00:10:18;13.27;;;5.27;;
65879;SDS011;52661;51.364;6.054;2023-10-13T00:12:44;10.73;;;4.65;;
65879;SDS011;52661;51.364;6.054;2023-10-13T00:15:15;13.50;;;5.35;;
65879;SDS011;52661;51.364;6.054;2023-10-13T00:17:40;11.85;;;5.15;;
65879;SDS011;52661;51.364;6.054;2023-10-13T00:20:07;11.52;;;5.05;;
65879;SDS011;52661;51.364;6.054;2023-10-13T00:22:52;11.40;;;5.68;;
65879;SDS011;52661;51.364;6.054;2023-10-13T00:25:17;14.67;;;4.73;;
65879;SDS011;52661;51.364;6.054;2023-10-13T00:27:51;9.43;;;4.47;;
65879;SDS011;52661;51.364;6.054;2023-10-13T00:30:17;9.52;;;4.68;;
65879;SDS011;52661;51.364;6.054;2023-10-13T00:32:42;13.33;;;4.97;;
65879;SDS011;52661;51.364;6.054;2023-10-13T00:35:09;15.55;;;5.88;;
65879;SDS011;52661;51.364;6.054;2023-10-13T00:37:40;9.68;;;4.38;;
65879;SDS011;52661;51.364;6.054;2023-10-13T00:40:10;11.43;;;4.70;;
65879;SDS011;52661;51.364;6.054;2023-10-13T00:42:55;12.20;;;4.90;;
65879;SDS011;52661;51.364;6.054;2023-10-13T00:45:28;11.07;;;4.93;;
65879;SDS011;52661;51.364;6.054;2023-10-13T00:47:55;11.95;;;5.75;;
65879;SDS011;52661;51.364;6.054;2023-10-13T00:50:26;11.05;;;4.95;;
65879;SDS011;52661;51.364;6.054;2023-10-13T00:52:51;10.13;;;4.93;;
65879;SDS011;52661;51.364;6.054;2023-10-13T00:55:17;15.20;;;4.73;;
65879;SDS011;52661;51.364;6.054;2023-10-13T00:57:48;13.77;;;4.85;;
65879;SDS011;52661;51.364;6.054;2023-10-13T01:00:14;14.52;;;5.80;;
65879;SDS011;52661;51.364;6.054;2023-10-13T01:02:49;14.77;;;5.15;;
65879;SDS011;52661;51.364;6.054;2023-10-13T01:05:31;16.55;;;5.05;;
65879;SDS011;52661;51.364;6.054;2023-10-13T01:08:00;13.50;;;5.60;;
65879;SDS011;52661;51.364;6.054;2023-10-13T01:10:26;15.52;;;5.25;;
65879;SDS011;52661;51.364;6.054;2023-10-13T01:12:52;14.23;;;5.63;;
65879;SDS011;52661;51.364;6.054;2023-10-13T01:15:18;9.50;;;4.82;;
65879;SDS011;52661;51.364;6.054;2023-10-13T01:17:47;11.00;;;5.32;;
65879;SDS011;52661;51.364;6.054;2023-10-13T01:20:12;11.27;;;4.93;;
65879;SDS011;52661;51.364;6.054;2023-10-13T01:22:45;11.43;;;5.72;;
65879;SDS011;52661;51.364;6.054;2023-10-13T01:25:20;15.35;;;5.80;;
65879;SDS011;52661;51.364;6.054;2023-10-13T01:27:50;12.27;;;6.10;;
65879;SDS011;52661;51.364;6.054;2023-10-13T01:30:16;11.43;;;5.60;;
65879;SDS011;52661;51.364;6.054;2023-10-13T01:32:41;14.23;;;5.80;;
65879;SDS011;52661;51.364;6.054;2023-10-13T01:35:10;14.95;;;5.57;;
65879;SDS011;52661;51.364;6.054;2023-10-13T01:37:35;14.10;;;5.70;;
65879;SDS011;52661;51.364;6.054;2023-10-13T01:40:00;13.13;;;5.13;;
65879;SDS011;52661;51.364;6.054;2023-10-13T01:42:26;13.03;;;5.47;;
65879;SDS011;52661;51.364;6.054;2023-10-13T01:44:53;12.57;;;4.90;;
65879;SDS011;52661;51.364;6.054;2023-10-13T01:47:31;15.27;;;5.97;;
65879;SDS011;52661;51.364;6.054;2023-10-13T01:49:57;13.07;;;5.68;;
65879;SDS011;52661;51.364;6.054;2023-10-13T01:52:23;12.65;;;5.75;;
65879;SDS011;52661;51.364;6.054;2023-10-13T01:54:49;13.73;;;5.75;;
65879;SDS011;52661;51.364;6.054;2023-10-13T01:57:15;12.80;;;5.43;;
65879;SDS011;52661;51.364;6.054;2023-10-13T01:59:44;12.45;;;5.68;;
65879;SDS011;52661;51.364;6.054;2023-10-13T02:02:10;12.75;;;5.38;;
65879;SDS011;52661;51.364;6.054;2023-10-13T02:04:37;11.88;;;5.35;;
65879;SDS011;52661;51.364;6.054;2023-10-13T02:07:07;12.25;;;5.65;;
65879;SDS011;52661;51.364;6.054;2023-10-13T02:09:33;12.10;;;5.10;;
65879;SDS011;52661;51.364;6.054;2023-10-13T02:12:01;14.63;;;5.07;;
65879;SDS011;52661;51.364;6.054;2023-10-13T02:14:27;12.97;;;5.60;;
65879;SDS011;52661;51.364;6.054;2023-10-13T02:16:52;12.30;;;5.07;;
65879;SDS011;52661;51.364;6.054;2023-10-13T02:19:37;15.70;;;5.78;;
65879;SDS011;52661;51.364;6.054;2023-10-13T02:22:05;13.88;;;6.05;;
65879;SDS011;52661;51.364;6.054;2023-10-13T02:24:33;11.85;;;5.75;;
65879;SDS011;52661;51.364;6.054;2023-10-13T02:26:58;11.00;;;5.00;;
65879;SDS011;52661;51.364;6.054;2023-10-13T02:29:30;11.77;;;6.28;;
65879;SDS011;52661;51.364;6.054;2023-10-13T02:31:55;12.80;;;5.60;;
65879;SDS011;52661;51.364;6.054;2023-10-13T02:34:20;11.50;;;4.70;;
65879;SDS011;52661;51.364;6.054;2023-10-13T02:36:48;12.60;;;4.65;;
65879;SDS011;52661;51.364;6.054;2023-10-13T02:39:14;13.63;;;5.55;;
65879;SDS011;52661;51.364;6.054;2023-10-13T02:44:10;12.35;;;5.53;;
65879;SDS011;52661;51.364;6.054;2023-10-13T02:46:44;12.02;;;5.05;;
65879;SDS011;52661;51.364;6.054;2023-10-13T02:49:15;16.98;;;6.20;;
65879;SDS011;52661;51.364;6.054;2023-10-13T02:51:44;12.80;;;5.95;;
65879;SDS011;52661;51.364;6.054;2023-10-13T02:54:09;11.33;;;5.33;;
65879;SDS011;52661;51.364;6.054;2023-10-13T02:56:35;13.85;;;5.30;;
65879;SDS011;52661;51.364;6.054;2023-10-13T02:59:01;16.55;;;5.13;;
65879;SDS011;52661;51.364;6.054;2023-10-13T03:01:30;10.95;;;5.25;;
65879;SDS011;52661;51.364;6.054;2023-10-13T03:03:58;10.85;;;5.10;;
65879;SDS011;52661;51.364;6.054;2023-10-13T03:06:24;10.85;;;5.95;;
65879;SDS011;52661;51.364;6.054;2023-10-13T03:08:57;10.52;;;5.22;;
65879;SDS011;52661;51.364;6.054;2023-10-13T03:11:25;10.02;;;5.38;;
65879;SDS011;52661;51.364;6.054;2023-10-13T03:13:50;10.10;;;4.70;;
65879;SDS011;52661;51.364;6.054;2023-10-13T03:16:17;14.98;;;5.88;;
65879;SDS011;52661;51.364;6.054;2023-10-13T03:18:44;11.73;;;5.60;;
65879;SDS011;52661;51.364;6.054;2023-10-13T03:21:18;15.10;;;5.57;;
65879;SDS011;52661;51.364;6.054;2023-10-13T03:23:53;14.77;;;5.55;;
65879;SDS011;52661;51.364;6.054;2023-10-13T03:26:19;13.15;;;5.47;;
65879;SDS011;52661;51.364;6.054;2023-10-13T03:28:45;10.50;;;4.80;;
65879;SDS011;52661;51.364;6.054;2023-10-13T03:31:16;13.05;;;5.55;;
65879;SDS011;52661;51.364;6.054;2023-10-13T03:33:43;10.35;;;5.10;;
65879;SDS011;52661;51.364;6.054;2023-10-13T03:36:10;11.05;;;6.03;;
65879;SDS011;52661;51.364;6.054;2023-10-13T03:38:45;14.13;;;6.60;;
65879;SDS011;52661;51.364;6.054;2023-10-13T03:41:11;12.57;;;5.85;;
65879;SDS011;52661;51.364;6.054;2023-10-13T03:43:44;14.23;;;6.10;;
65879;SDS011;52661;51.364;6.054;2023-10-13T03:46:10;14.88;;;6.55;;
65879;SDS011;52661;51.364;6.054;2023-10-13T03:48:35;11.88;;;4.85;;
65879;SDS011;52661;51.364;6.054;2023-10-13T03:51:17;14.10;;;5.82;;
65879;SDS011;52661;51.364;6.054;2023-10-13T03:53:43;11.80;;;5.40;;
65879;SDS011;52661;51.364;6.054;2023-10-13T03:56:25;14.00;;;5.72;;
65879;SDS011;52661;51.364;6.054;2023-10-13T03:58:57;13.45;;;5.13;;
65879;SDS011;52661;51.364;6.054;2023-10-13T04:01:30;13.55;;;6.55;;
65879;SDS011;52661;51.364;6.054;2023-10-13T04:04:15;15.35;;;5.63;;
65879;SDS011;52661;51.364;6.054;2023-10-13T04:06:43;16.58;;;6.18;;
65879;SDS011;52661;51.364;6.054;2023-10-13T04:09:18;15.07;;;5.63;;
65879;SDS011;52661;51.364;6.054;2023-10-13T04:12:09;14.20;;;5.72;;
65879;SDS011;52661;51.364;6.054;2023-10-13T04:14:40;9.80;;;5.18;;
65879;SDS011;52661;51.364;6.054;2023-10-13T04:17:23;13.30;;;4.90;;
65879;SDS011;52661;51.364;6.054;2023-10-13T04:19:52;13.95;;;5.75;;
65879;SDS011;52661;51.364;6.054;2023-10-13T04:22:30;12.88;;;5.63;;
65879;SDS011;52661;51.364;6.054;2023-10-13T04:27:57;13.88;;;5.10;;
65879;SDS011;52661;51.364;6.054;2023-10-13T04:30:52;14.50;;;5.43;;
65879;SDS011;52661;51.364;6.054;2023-10-13T04:33:20;11.75;;;5.53;;
65879;SDS011;52661;51.364;6.054;2023-10-13T04:38:26;10.13;;;5.47;;
65879;SDS011;52661;51.364;6.054;2023-10-13T04:40:59;13.25;;;5.50;;
65879;SDS011;52661;51.364;6.054;2023-10-13T04:43:26;10.80;;;4.65;;
65879;SDS011;52661;51.364;6.054;2023-10-13T04:45:59;9.80;;;4.25;;
65879;SDS011;52661;51.364;6.054;2023-10-13T04:48:39;10.13;;;4.93;;
65879;SDS011;52661;51.364;6.054;2023-10-13T04:51:04;10.75;;;5.70;;
65879;SDS011;52661;51.364;6.054;2023-10-13T04:53:48;12.27;;;4.18;;
65879;SDS011;52661;51.364;6.054;2023-10-13T04:56:29;9.27;;;4.35;;
65879;SDS011;52661;51.364;6.054;2023-10-13T04:59:23;10.80;;;4.43;;
65879;SDS011;52661;51.364;6.054;2023-10-13T05:02:02;11.88;;;4.70;;
65879;SDS011;52661;51.364;6.054;2023-10-13T05:04:46;13.18;;;4.63;;
65879;SDS011;52661;51.364;6.054;2023-10-13T05:07:37;12.15;;;4.85;;
65879;SDS011;52661;51.364;6.054;2023-10-13T05:10:21;11.40;;;4.68;;
65879;SDS011;52661;51.364;6.054;2023-10-13T05:13:05;7.97;;;4.63;;
65879;SDS011;52661;51.364;6.054;2023-10-13T05:15:50;9.02;;;4.18;;
65879;SDS011;52661;51.364;6.054;2023-10-13T05:18:34;10.55;;;4.28;;
65879;SDS011;52661;51.364;6.054;2023-10-13T05:21:18;10.57;;;4.15;;
65879;SDS011;52661;51.364;6.054;2023-10-13T05:24:02;10.07;;;4.05;;
65879;SDS011;52661;51.364;6.054;2023-10-13T05:26:45;6.40;;;3.40;;
65879;SDS011;52661;51.364;6.054;2023-10-13T05:29:40;7.15;;;2.53;;
65879;SDS011;52661;51.364;6.054;2023-10-13T05:32:24;7.85;;;2.83;;
65879;SDS011;52661;51.364;6.054;2023-10-13T05:35:12;7.03;;;2.78;;
65879;SDS011;52661;51.364;6.054;2023-10-13T05:37:56;10.95;;;3.55;;
65879;SDS011;52661;51.364;6.054;2023-10-13T05:40:40;6.20;;;2.65;;
65879;SDS011;52661;51.364;6.054;2023-10-13T05:43:24;9.15;;;3.03;;
65879;SDS011;52661;51.364;6.054;2023-10-13T05:46:08;7.07;;;3.15;;
65879;SDS011;52661;51.364;6.054;2023-10-13T05:48:52;10.65;;;3.22;;
65879;SDS011;52661;51.364;6.054;2023-10-13T05:51:23;8.35;;;3.15;;
65879;SDS011;52661;51.364;6.054;2023-10-13T05:54:01;7.85;;;2.95;;
65879;SDS011;52661;51.364;6.054;2023-10-13T05:56:40;12.50;;;2.95;;
65879;SDS011;52661;51.364;6.054;2023-10-13T05:59:24;7.15;;;2.42;;
65879;SDS011;52661;51.364;6.054;2023-10-13T06:02:08;9.15;;;2.90;;
65879;SDS011;52661;51.364;6.054;2023-10-13T06:04:52;9.68;;;3.30;;
65879;SDS011;52661;51.364;6.054;2023-10-13T06:07:35;10.93;;;3.53;;
65879;SDS011;52661;51.364;6.054;2023-10-13T06:10:19;8.88;;;2.70;;
65879;SDS011;52661;51.364;6.054;2023-10-13T06:13:03;7.68;;;2.45;;
65879;SDS011;52661;51.364;6.054;2023-10-13T06:15:47;5.93;;;2.80;;
65879;SDS011;52661;51.364;6.054;2023-10-13T06:18:31;7.95;;;2.53;;
65879;SDS011;52661;51.364;6.054;2023-10-13T06:21:16;7.13;;;2.72;;
65879;SDS011;52661;51.364;6.054;2023-10-13T06:23:59;9.35;;;2.63;;
65879;SDS011;52661;51.364;6.054;2023-10-13T06:26:46;9.05;;;2.70;;
65879;SDS011;52661;51.364;6.054;2023-10-13T06:29:30;10.43;;;2.38;;
65879;SDS011;52661;51.364;6.054;2023-10-13T06:31:55;9.10;;;2.03;;
65879;SDS011;52661;51.364;6.054;2023-10-13T06:34:22;6.47;;;2.22;;
65879;SDS011;52661;51.364;6.054;2023-10-13T06:37:02;13.75;;;2.45;;
65879;SDS011;52661;51.364;6.054;2023-10-13T06:39:27;8.47;;;2.03;;
65879;SDS011;52661;51.364;6.054;2023-10-13T06:42:02;12.93;;;2.80;;
65879;SDS011;52661;51.364;6.054;2023-10-13T06:44:30;6.65;;;1.95;;
65879;SDS011;52661;51.364;6.054;2023-10-13T06:46:57;6.55;;;2.70;;
65879;SDS011;52661;51.364;6.054;2023-10-13T06:49:22;9.60;;;2.13;;
65879;SDS011;52661;51.364;6.054;2023-10-13T06:51:48;9.05;;;2.80;;
65879;SDS011;52661;51.364;6.054;2023-10-13T06:54:14;7.05;;;2.35;;
65879;SDS011;52661;51.364;6.054;2023-10-13T06:56:45;8.45;;;2.40;;
65879;SDS011;52661;51.364;6.054;2023-10-13T06:59:11;5.63;;;2.50;;
65879;SDS011;52661;51.364;6.054;2023-10-13T07:01:39;10.38;;;2.60;;
65879;SDS011;52661;51.364;6.054;2023-10-13T07:04:08;9.70;;;2.85;;
65879;SDS011;52661;51.364;6.054;2023-10-13T07:06:44;8.52;;;2.85;;
65879;SDS011;52661;51.364;6.054;2023-10-13T07:09:13;8.68;;;2.85;;
65879;SDS011;52661;51.364;6.054;2023-10-13T07:11:59;7.70;;;2.95;;
65879;SDS011;52661;51.364;6.054;2023-10-13T07:14:26;14.10;;;3.15;;
65879;SDS011;52661;51.364;6.054;2023-10-13T07:16:55;15.00;;;2.80;;
65879;SDS011;52661;51.364;6.054;2023-10-13T07:19:23;11.93;;;2.97;;
65879;SDS011;52661;51.364;6.054;2023-10-13T07:21:52;7.72;;;3.05;;
65879;SDS011;52661;51.364;6.054;2023-10-13T07:24:23;8.75;;;3.10;;
65879;SDS011;52661;51.364;6.054;2023-10-13T07:26:49;9.27;;;3.58;;
65879;SDS011;52661;51.364;6.054;2023-10-13T07:29:22;12.75;;;3.53;;
65879;SDS011;52661;51.364;6.054;2023-10-13T07:31:49;9.65;;;3.08;;
65879;SDS011;52661;51.364;6.054;2023-10-13T07:34:15;9.88;;;3.40;;
65879;SDS011;52661;51.364;6.054;2023-10-13T07:36:54;9.32;;;2.67;;
65879;SDS011;52661;51.364;6.054;2023-10-13T07:39:28;8.05;;;2.78;;
65879;SDS011;52661;51.364;6.054;2023-10-13T07:41:58;8.60;;;2.85;;
65879;SDS011;52661;51.364;6.054;2023-10-13T07:44:31;14.50;;;3.30;;
65879;SDS011;52661;51.364;6.054;2023-10-13T07:47:02;8.48;;;3.05;;
65879;SDS011;52661;51.364;6.054;2023-10-13T07:49:32;10.73;;;3.00;;
65879;SDS011;52661;51.364;6.054;2023-10-13T07:51:58;9.13;;;3.10;;
65879;SDS011;52661;51.364;6.054;2023-10-13T07:54:26;12.13;;;3.13;;
65879;SDS011;52661;51.364;6.054;2023-10-13T07:56:51;7.18;;;2.75;;
65879;SDS011;52661;51.364;6.054;2023-10-13T07:59:18;9.30;;;2.70;;
65879;SDS011;52661;51.364;6.054;2023-10-13T08:01:47;12.05;;;2.92;;
65879;SDS011;52661;51.364;6.054;2023-10-13T08:04:12;8.40;;;2.53;;
65879;SDS011;52661;51.364;6.054;2023-10-13T08:06:39;10.35;;;2.67;;
65879;SDS011;52661;51.364;6.054;2023-10-13T08:09:08;6.85;;;2.65;;
65879;SDS011;52661;51.364;6.054;2023-10-13T08:11:34;12.15;;;2.70;;
65879;SDS011;52661;51.364;6.054;2023-10-13T08:14:00;9.15;;;2.63;;
65879;SDS011;52661;51.364;6.054;2023-10-13T08:16:35;11.60;;;3.63;;
65879;SDS011;52661;51.364;6.054;2023-10-13T08:19:17;7.78;;;2.72;;
65879;SDS011;52661;51.364;6.054;2023-10-13T08:21:46;7.25;;;2.78;;
65879;SDS011;52661;51.364;6.054;2023-10-13T08:26:49;6.45;;;2.35;;
65879;SDS011;52661;51.364;6.054;2023-10-13T08:29:33;8.95;;;2.80;;
65879;SDS011;52661;51.364;6.054;2023-10-13T08:32:34;11.48;;;2.33;;
65879;SDS011;52661;51.364;6.054;2023-10-13T08:35:19;7.18;;;2.13;;
65879;SDS011;52661;51.364;6.054;2023-10-13T08:37:48;9.75;;;2.58;;
65879;SDS011;52661;51.364;6.054;2023-10-13T08:40:16;9.57;;;2.40;;
65879;SDS011;52661;51.364;6.054;2023-10-13T08:43:00;7.90;;;2.75;;
65879;SDS011;52661;51.364;6.054;2023-10-13T08:47:56;9.73;;;2.60;;
65879;SDS011;52661;51.364;6.054;2023-10-13T08:50:47;11.48;;;2.60;;
65879;SDS011;52661;51.364;6.054;2023-10-13T08:56:02;8.55;;;3.03;;
65879;SDS011;52661;51.364;6.054;2023-10-13T08:58:30;7.93;;;2.47;;
65879;SDS011;52661;51.364;6.054;2023-10-13T09:01:14;7.80;;;2.45;;
65879;SDS011;52661;51.364;6.054;2023-10-13T09:03:59;5.78;;;3.42;;
65879;SDS011;52661;51.364;6.054;2023-10-13T09:07:04;8.05;;;2.55;;
65879;SDS011;52661;51.364;6.054;2023-10-13T09:12:10;8.10;;;3.33;;
65879;SDS011;52661;51.364;6.054;2023-10-13T09:14:39;7.53;;;2.65;;
65879;SDS011;52661;51.364;6.054;2023-10-13T09:17:09;8.02;;;2.60;;
65879;SDS011;52661;51.364;6.054;2023-10-13T09:19:50;11.23;;;3.03;;
65879;SDS011;52661;51.364;6.054;2023-10-13T09:22:23;10.63;;;2.58;;
65879;SDS011;52661;51.364;6.054;2023-10-13T09:25:01;9.05;;;3.10;;
65879;SDS011;52661;51.364;6.054;2023-10-13T09:27:28;9.40;;;3.22;;
65879;SDS011;52661;51.364;6.054;2023-10-13T09:29:57;6.30;;;2.17;;
65879;SDS011;52661;51.364;6.054;2023-10-13T09:32:22;8.50;;;2.92;;
65879;SDS011;52661;51.364;6.054;2023-10-13T09:34:47;8.87;;;3.50;;
65879;SDS011;52661;51.364;6.054;2023-10-13T09:37:16;8.43;;;3.03;;
65879;SDS011;52661;51.364;6.054;2023-10-13T09:39:46;9.23;;;3.08;;
65879;SDS011;52661;51.364;6.054;2023-10-13T09:42:13;8.80;;;3.05;;
65879;SDS011;52661;51.364;6.054;2023-10-13T09:44:40;7.07;;;3.15;;
65879;SDS011;52661;51.364;6.054;2023-10-13T09:47:07;13.33;;;3.30;;
65879;SDS011;52661;51.364;6.054;2023-10-13T09:49:38;9.48;;;3.05;;
65879;SDS011;52661;51.364;6.054;2023-10-13T09:52:11;9.88;;;3.42;;
65879;SDS011;52661;51.364;6.054;2023-10-13T09:54:44;10.57;;;2.97;;
65879;SDS011;52661;51.364;6.054;2023-10-13T09:57:17;7.85;;;3.38;;
65879;SDS011;52661;51.364;6.054;2023-10-13T09:59:49;5.45;;;2.55;;
65879;SDS011;52661;51.364;6.054;2023-10-13T10:02:17;8.23;;;3.00;;
65879;SDS011;52661;51.364;6.054;2023-10-13T10:04:54;9.30;;;3.00;;
65879;SDS011;52661;51.364;6.054;2023-10-13T10:07:27;7.55;;;2.92;;
65879;SDS011;52661;51.364;6.054;2023-10-13T10:09:57;7.78;;;2.85;;
65879;SDS011;52661;51.364;6.054;2023-10-13T10:17:26;10.10;;;3.13;;
65879;SDS011;52661;51.364;6.054;2023-10-13T10:19:54;13.27;;;3.17;;
65879;SDS011;52661;51.364;6.054;2023-10-13T10:22:29;10.07;;;2.72;;
65879;SDS011;52661;51.364;6.054;2023-10-13T10:24:58;11.32;;;4.32;;
65879;SDS011;52661;51.364;6.054;2023-10-13T10:27:28;10.93;;;3.10;;
65879;SDS011;52661;51.364;6.054;2023-10-13T10:29:54;8.32;;;3.38;;
65879;SDS011;52661;51.364;6.054;2023-10-13T10:32:19;7.15;;;3.50;;
65879;SDS011;52661;51.364;6.054;2023-10-13T10:34:45;8.40;;;2.97;;
65879;SDS011;52661;51.364;6.054;2023-10-13T10:37:10;9.27;;;2.70;;
65879;SDS011;52661;51.364;6.054;2023-10-13T10:39:37;8.50;;;3.22;;
65879;SDS011;52661;51.364;6.054;2023-10-13T10:42:11;10.93;;;3.38;;
65879;SDS011;52661;51.364;6.054;2023-10-13T10:47:24;8.43;;;3.20;;
65879;SDS011;52661;51.364;6.054;2023-10-13T10:50:03;10.00;;;3.72;;
65879;SDS011;52661;51.364;6.054;2023-10-13T10:52:34;8.90;;;3.40;;
65879;SDS011;52661;51.364;6.054;2023-10-13T10:55:03;6.80;;;3.50;;
65879;SDS011;52661;51.364;6.054;2023-10-13T10:57:32;9.32;;;3.15;;
65879;SDS011;52661;51.364;6.054;2023-10-13T11:00:02;11.18;;;4.60;;
65879;SDS011;52661;51.364;6.054;2023-10-13T11:02:37;9.70;;;3.45;;
65879;SDS011;52661;51.364;6.054;2023-10-13T11:05:02;10.75;;;3.50;;
65879;SDS011;52661;51.364;6.054;2023-10-13T11:07:29;9.85;;;3.22;;
65879;SDS011;52661;51.364;6.054;2023-10-13T11:09:55;10.02;;;3.50;;
65879;SDS011;52661;51.364;6.054;2023-10-13T11:12:31;12.23;;;2.90;;
65879;SDS011;52661;51.364;6.054;2023-10-13T11:17:25;8.57;;;3.25;;
65879;SDS011;52661;51.364;6.054;2023-10-13T11:19:51;8.07;;;3.10;;
65879;SDS011;52661;51.364;6.054;2023-10-13T11:24:55;5.75;;;2.45;;
65879;SDS011;52661;51.364;6.054;2023-10-13T11:27:24;8.40;;;2.80;;
65879;SDS011;52661;51.364;6.054;2023-10-13T11:30:08;13.20;;;3.25;;
65879;SDS011;52661;51.364;6.054;2023-10-13T11:32:37;8.20;;;2.72;;
65879;SDS011;52661;51.364;6.054;2023-10-13T11:35:06;11.23;;;2.75;;
65879;SDS011;52661;51.364;6.054;2023-10-13T11:37:35;11.10;;;2.67;;
65879;SDS011;52661;51.364;6.054;2023-10-13T11:40:08;8.00;;;3.45;;
65879;SDS011;52661;51.364;6.054;2023-10-13T11:42:37;8.60;;;2.75;;
65879;SDS011;52661;51.364;6.054;2023-10-13T11:45:02;10.47;;;2.27;;
65879;SDS011;52661;51.364;6.054;2023-10-13T11:47:46;9.02;;;2.63;;
65879;SDS011;52661;51.364;6.054;2023-10-13T11:50:24;15.07;;;3.20;;
65879;SDS011;52661;51.364;6.054;2023-10-13T11:53:10;9.65;;;2.47;;
65879;SDS011;52661;51.364;6.054;2023-10-13T11:55:37;11.63;;;2.85;;
65879;SDS011;52661;51.364;6.054;2023-10-13T11:58:02;11.20;;;2.80;;
65879;SDS011;52661;51.364;6.054;2023-10-13T12:00:30;5.20;;;2.15;;
65879;SDS011;52661;51.364;6.054;2023-10-13T12:03:34;8.65;;;2.30;;
65879;SDS011;52661;51.364;6.054;2023-10-13T12:06:18;10.30;;;2.97;;
65879;SDS011;52661;51.364;6.054;2023-10-13T12:11:45;9.23;;;2.67;;
65879;SDS011;52661;51.364;6.054;2023-10-13T12:14:11;13.52;;;2.78;;
65879;SDS011;52661;51.364;6.054;2023-10-13T12:16:42;15.38;;;3.22;;
65879;SDS011;52661;51.364;6.054;2023-10-13T12:19:07;11.48;;;2.55;;
65879;SDS011;52661;51.364;6.054;2023-10-13T12:21:36;8.70;;;2.85;;
65879;SDS011;52661;51.364;6.054;2023-10-13T12:24:02;11.57;;;2.65;;
65879;SDS011;52661;51.364;6.054;2023-10-13T12:26:28;9.88;;;3.42;;
65879;SDS011;52661;51.364;6.054;2023-10-13T12:28:58;9.95;;;2.17;;
65879;SDS011;52661;51.364;6.054;2023-10-13T12:31:31;9.13;;;2.85;;
65879;SDS011;52661;51.364;6.054;2023-10-13T12:33:57;9.30;;;3.00;;
65879;SDS011;52661;51.364;6.054;2023-10-13T12:39:05;10.65;;;2.90;;
65879;SDS011;52661;51.364;6.054;2023-10-13T12:41:33;9.10;;;2.15;;
65879;SDS011;52661;51.364;6.054;2023-10-13T12:44:17;18.65;;;3.40;;
65879;SDS011;52661;51.364;6.054;2023-10-13T12:47:01;10.57;;;3.22;;
65879;SDS011;52661;51.364;6.054;2023-10-13T12:49:45;13.45;;;3.03;;
65879;SDS011;52661;51.364;6.054;2023-10-13T12:52:10;12.90;;;4.30;;
65879;SDS011;52661;51.364;6.054;2023-10-13T12:54:47;9.30;;;3.28;;
65879;SDS011;52661;51.364;6.054;2023-10-13T12:57:19;11.75;;;3.08;;
65879;SDS011;52661;51.364;6.054;2023-10-13T12:59:48;12.48;;;3.05;;
65879;SDS011;52661;51.364;6.054;2023-10-13T13:02:13;9.60;;;2.95;;
65879;SDS011;52661;51.364;6.054;2023-10-13T13:04:41;9.10;;;2.65;;
65879;SDS011;52661;51.364;6.054;2023-10-13T13:07:10;10.45;;;2.20;;
65879;SDS011;52661;51.364;6.054;2023-10-13T13:09:41;13.32;;;3.22;;
65879;SDS011;52661;51.364;6.054;2023-10-13T13:12:06;5.68;;;2.22;;
65879;SDS011;52661;51.364;6.054;2023-10-13T13:14:32;13.80;;;3.03;;
65879;SDS011;52661;51.364;6.054;2023-10-13T13:19:33;7.22;;;2.35;;
65879;SDS011;52661;51.364;6.054;2023-10-13T13:22:04;12.50;;;2.92;;
65879;SDS011;52661;51.364;6.054;2023-10-13T13:24:29;13.75;;;2.90;;
65879;SDS011;52661;51.364;6.054;2023-10-13T13:26:55;18.60;;;3.20;;
65879;SDS011;52661;51.364;6.054;2023-10-13T13:29:21;7.70;;;2.70;;
65879;SDS011;52661;51.364;6.054;2023-10-13T13:31:46;8.27;;;2.77;;
65879;SDS011;52661;51.364;6.054;2023-10-13T13:34:11;9.67;;;2.53;;
65879;SDS011;52661;51.364;6.054;2023-10-13T13:36:40;8.63;;;3.40;;
65879;SDS011;52661;51.364;6.054;2023-10-13T13:39:12;6.75;;;2.55;;
65879;SDS011;52661;51.364;6.054;2023-10-13T13:41:42;8.60;;;2.42;;
65879;SDS011;52661;51.364;6.054;2023-10-13T13:44:09;11.45;;;2.58;;
65879;SDS011;52661;51.364;6.054;2023-10-13T13:46:40;10.85;;;2.40;;
65879;SDS011;52661;51.364;6.054;2023-10-13T13:49:08;14.07;;;2.92;;
65879;SDS011;52661;51.364;6.054;2023-10-13T13:51:43;9.65;;;2.42;;
65879;SDS011;52661;51.364;6.054;2023-10-13T13:54:08;16.40;;;3.22;;
65879;SDS011;52661;51.364;6.054;2023-10-13T13:56:33;9.73;;;2.83;;
65879;SDS011;52661;51.364;6.054;2023-10-13T13:59:03;8.60;;;2.25;;
65879;SDS011;52661;51.364;6.054;2023-10-13T14:01:33;7.95;;;2.20;;
65879;SDS011;52661;51.364;6.054;2023-10-13T14:04:00;9.35;;;3.22;;
65879;SDS011;52661;51.364;6.054;2023-10-13T14:06:27;7.18;;;2.40;;
65879;SDS011;52661;51.364;6.054;2023-10-13T14:08:53;9.93;;;2.87;;
65879;SDS011;52661;51.364;6.054;2023-10-13T14:11:23;9.68;;;2.65;;
65879;SDS011;52661;51.364;6.054;2023-10-13T14:14:13;8.65;;;2.67;;
65879;SDS011;52661;51.364;6.054;2023-10-13T14:16:45;13.40;;;3.05;;
65879;SDS011;52661;51.364;6.054;2023-10-13T14:19:12;8.07;;;2.80;;
65879;SDS011;52661;51.364;6.054;2023-10-13T14:21:38;12.18;;;3.22;;
65879;SDS011;52661;51.364;6.054;2023-10-13T14:24:03;8.18;;;3.17;;
65879;SDS011;52661;51.364;6.054;2023-10-13T14:26:37;8.10;;;2.42;;
65879;SDS011;52661;51.364;6.054;2023-10-13T14:29:03;8.82;;;2.75;;
65879;SDS011;52661;51.364;6.054;2023-10-13T14:31:32;7.45;;;2.45;;
65879;SDS011;52661;51.364;6.054;2023-10-13T14:33:58;12.53;;;2.60;;
65879;SDS011;52661;51.364;6.054;2023-10-13T14:36:23;8.70;;;3.10;;
65879;SDS011;52661;51.364;6.054;2023-10-13T14:38:53;8.00;;;3.15;;
65879;SDS011;52661;51.364;6.054;2023-10-13T14:41:18;16.70;;;2.87;;
65879;SDS011;52661;51.364;6.054;2023-10-13T14:43:44;7.57;;;2.30;;
65879;SDS011;52661;51.364;6.054;2023-10-13T14:46:13;8.20;;;2.28;;
65879;SDS011;52661;51.364;6.054;2023-10-13T14:48:38;8.02;;;2.00;;
65879;SDS011;52661;51.364;6.054;2023-10-13T14:51:04;6.80;;;2.50;;
65879;SDS011;52661;51.364;6.054;2023-10-13T14:53:33;9.15;;;2.90;;
65879;SDS011;52661;51.364;6.054;2023-10-13T14:56:00;10.03;;;2.87;;
65879;SDS011;52661;51.364;6.054;2023-10-13T14:58:25;7.97;;;2.42;;
65879;SDS011;52661;51.364;6.054;2023-10-13T15:00:51;8.30;;;3.13;;
65879;SDS011;52661;51.364;6.054;2023-10-13T15:03:17;10.57;;;2.60;;
65879;SDS011;52661;51.364;6.054;2023-10-13T15:05:43;12.32;;;3.00;;
65879;SDS011;52661;51.364;6.054;2023-10-13T15:08:09;11.17;;;3.00;;
65879;SDS011;52661;51.364;6.054;2023-10-13T15:10:34;11.35;;;2.65;;
65879;SDS011;52661;51.364;6.054;2023-10-13T15:13:01;7.68;;;3.35;;
65879;SDS011;52661;51.364;6.054;2023-10-13T15:15:26;7.93;;;2.80;;
65879;SDS011;52661;51.364;6.054;2023-10-13T15:17:55;11.32;;;2.88;;
65879;SDS011;52661;51.364;6.054;2023-10-13T15:20:21;6.90;;;2.67;;
65879;SDS011;52661;51.364;6.054;2023-10-13T15:22:46;11.93;;;2.90;;
65879;SDS011;52661;51.364;6.054;2023-10-13T15:25:12;5.40;;;1.58;;
65879;SDS011;52661;51.364;6.054;2023-10-13T15:27:53;6.72;;;2.15;;
65879;SDS011;52661;51.364;6.054;2023-10-13T15:30:22;8.98;;;2.72;;
65879;SDS011;52661;51.364;6.054;2023-10-13T15:32:50;8.63;;;2.70;;
65879;SDS011;52661;51.364;6.054;2023-10-13T15:35:16;7.80;;;2.80;;
65879;SDS011;52661;51.364;6.054;2023-10-13T15:37:41;10.98;;;2.50;;
65879;SDS011;52661;51.364;6.054;2023-10-13T15:40:12;9.05;;;2.63;;
65879;SDS011;52661;51.364;6.054;2023-10-13T15:42:40;9.52;;;2.53;;
65879;SDS011;52661;51.364;6.054;2023-10-13T15:45:06;8.45;;;2.67;;